sensor_id;sensor_type;location;lat;lon;timestamp;P1;durP1;ratioP1;P2;durP2;ratioP2
22648;SDS011;11491;41.942;24.220;2022-11-15T00:00:32;18.17;;;9.40;;
22648;SDS011;11491;41.942;24.220;2022-11-15T00:02:59;15.95;;;9.85;;
22648;SDS011;11491;41.942;24.220;2022-11-15T00:05:26;14.35;;;8.88;;
22648;SDS011;11491;41.942;24.220;2022-11-15T00:07:52;15.65;;;9.13;;
22648;SDS011;11491;41.942;24.220;2022-11-15T00:10:19;18.23;;;9.80;;
22648;SDS011;11491;41.942;24.220;2022-11-15T00:12:46;17.45;;;10.75;;
22648;SDS011;11491;41.942;24.220;2022-11-15T00:15:13;19.92;;;11.55;;
22648;SDS011;11491;41.942;24.220;2022-11-15T00:17:41;16.73;;;9.63;;
22648;SDS011;11491;41.942;24.220;2022-11-15T00:20:08;20.35;;;11.68;;
22648;SDS011;11491;41.942;24.220;2022-11-15T00:22:36;17.08;;;10.15;;
22648;SDS011;11491;41.942;24.220;2022-11-15T00:25:04;16.05;;;10.05;;
22648;SDS011;11491;41.942;24.220;2022-11-15T00:27:31;15.10;;;9.48;;
22648;SDS011;11491;41.942;24.220;2022-11-15T00:29:58;12.98;;;8.70;;
22648;SDS011;11491;41.942;24.220;2022-11-15T00:32:25;12.98;;;8.35;;
22648;SDS011;11491;41.942;24.220;2022-11-15T00:34:53;13.60;;;8.13;;
22648;SDS011;11491;41.942;24.220;2022-11-15T00:37:20;14.13;;;9.10;;
22648;SDS011;11491;41.942;24.220;2022-11-15T00:39:46;15.85;;;9.73;;
22648;SDS011;11491;41.942;24.220;2022-11-15T00:42:13;13.45;;;8.45;;
22648;SDS011;11491;41.942;24.220;2022-11-15T00:44:40;13.65;;;8.05;;
22648;SDS011;11491;41.942;24.220;2022-11-15T00:47:06;11.18;;;7.57;;
22648;SDS011;11491;41.942;24.220;2022-11-15T00:49:33;14.02;;;8.98;;
22648;SDS011;11491;41.942;24.220;2022-11-15T00:52:01;16.80;;;9.80;;
22648;SDS011;11491;41.942;24.220;2022-11-15T00:54:28;10.98;;;7.13;;
22648;SDS011;11491;41.942;24.220;2022-11-15T00:56:55;11.98;;;7.78;;
22648;SDS011;11491;41.942;24.220;2022-11-15T00:59:22;11.82;;;7.13;;
22648;SDS011;11491;41.942;24.220;2022-11-15T01:01:48;12.38;;;8.77;;
22648;SDS011;11491;41.942;24.220;2022-11-15T01:04:15;12.38;;;8.07;;
22648;SDS011;11491;41.942;24.220;2022-11-15T01:06:42;15.07;;;9.32;;
22648;SDS011;11491;41.942;24.220;2022-11-15T01:09:10;13.70;;;8.88;;
22648;SDS011;11491;41.942;24.220;2022-11-15T01:11:37;12.60;;;7.70;;
22648;SDS011;11491;41.942;24.220;2022-11-15T01:14:03;13.43;;;7.90;;
22648;SDS011;11491;41.942;24.220;2022-11-15T01:16:30;15.70;;;7.65;;
22648;SDS011;11491;41.942;24.220;2022-11-15T01:18:57;10.77;;;7.03;;
22648;SDS011;11491;41.942;24.220;2022-11-15T01:21:24;10.68;;;6.50;;
22648;SDS011;11491;41.942;24.220;2022-11-15T01:23:52;9.00;;;5.55;;
22648;SDS011;11491;41.942;24.220;2022-11-15T01:26:20;8.70;;;5.20;;
22648;SDS011;11491;41.942;24.220;2022-11-15T01:28:47;7.55;;;4.93;;
22648;SDS011;11491;41.942;24.220;2022-11-15T01:31:15;8.40;;;5.85;;
22648;SDS011;11491;41.942;24.220;2022-11-15T01:33:43;10.15;;;5.45;;
22648;SDS011;11491;41.942;24.220;2022-11-15T01:36:11;8.07;;;5.70;;
22648;SDS011;11491;41.942;24.220;2022-11-15T01:38:39;10.13;;;5.40;;
22648;SDS011;11491;41.942;24.220;2022-11-15T01:41:06;10.50;;;6.43;;
22648;SDS011;11491;41.942;24.220;2022-11-15T01:43:40;11.25;;;6.32;;
22648;SDS011;11491;41.942;24.220;2022-11-15T01:46:12;8.98;;;6.20;;
22648;SDS011;11491;41.942;24.220;2022-11-15T01:48:49;8.38;;;5.63;;
22648;SDS011;11491;41.942;24.220;2022-11-15T01:51:18;8.68;;;5.25;;
22648;SDS011;11491;41.942;24.220;2022-11-15T01:53:49;8.35;;;5.38;;
22648;SDS011;11491;41.942;24.220;2022-11-15T01:56:21;8.57;;;5.13;;
22648;SDS011;11491;41.942;24.220;2022-11-15T01:58:52;7.70;;;5.20;;
22648;SDS011;11491;41.942;24.220;2022-11-15T02:01:21;7.55;;;4.97;;
22648;SDS011;11491;41.942;24.220;2022-11-15T02:03:52;8.93;;;5.60;;
22648;SDS011;11491;41.942;24.220;2022-11-15T02:06:23;10.32;;;6.25;;
22648;SDS011;11491;41.942;24.220;2022-11-15T02:08:50;19.80;;;10.45;;
22648;SDS011;11491;41.942;24.220;2022-11-15T02:11:17;16.00;;;8.93;;
22648;SDS011;11491;41.942;24.220;2022-11-15T02:13:44;16.08;;;9.02;;
22648;SDS011;11491;41.942;24.220;2022-11-15T02:16:15;15.30;;;7.93;;
22648;SDS011;11491;41.942;24.220;2022-11-15T02:18:55;15.98;;;7.60;;
22648;SDS011;11491;41.942;24.220;2022-11-15T02:21:27;10.63;;;6.40;;
22648;SDS011;11491;41.942;24.220;2022-11-15T02:27:13;9.68;;;5.82;;
22648;SDS011;11491;41.942;24.220;2022-11-15T02:30:18;12.25;;;6.60;;
22648;SDS011;11491;41.942;24.220;2022-11-15T02:32:48;12.55;;;9.05;;
22648;SDS011;11491;41.942;24.220;2022-11-15T02:35:21;12.27;;;9.15;;
22648;SDS011;11491;41.942;24.220;2022-11-15T02:37:56;11.60;;;8.43;;
22648;SDS011;11491;41.942;24.220;2022-11-15T02:40:27;12.30;;;8.77;;
22648;SDS011;11491;41.942;24.220;2022-11-15T02:43:03;15.30;;;11.27;;
22648;SDS011;11491;41.942;24.220;2022-11-15T02:45:54;15.18;;;11.02;;
22648;SDS011;11491;41.942;24.220;2022-11-15T02:48:28;17.02;;;13.23;;
22648;SDS011;11491;41.942;24.220;2022-11-15T02:50:58;15.07;;;10.45;;
22648;SDS011;11491;41.942;24.220;2022-11-15T02:53:25;11.77;;;9.77;;
22648;SDS011;11491;41.942;24.220;2022-11-15T02:55:52;12.27;;;8.70;;
22648;SDS011;11491;41.942;24.220;2022-11-15T02:58:29;13.63;;;8.32;;
22648;SDS011;11491;41.942;24.220;2022-11-15T03:01:17;15.13;;;8.60;;
22648;SDS011;11491;41.942;24.220;2022-11-15T03:03:56;16.20;;;8.57;;
22648;SDS011;11491;41.942;24.220;2022-11-15T03:06:32;14.60;;;8.30;;
22648;SDS011;11491;41.942;24.220;2022-11-15T03:09:07;12.07;;;7.45;;
22648;SDS011;11491;41.942;24.220;2022-11-15T03:11:41;12.82;;;8.73;;
22648;SDS011;11491;41.942;24.220;2022-11-15T03:14:22;11.40;;;8.40;;
22648;SDS011;11491;41.942;24.220;2022-11-15T03:16:58;12.90;;;8.20;;
22648;SDS011;11491;41.942;24.220;2022-11-15T03:19:30;11.27;;;7.93;;
22648;SDS011;11491;41.942;24.220;2022-11-15T03:22:00;9.68;;;7.30;;
22648;SDS011;11491;41.942;24.220;2022-11-15T03:24:33;11.43;;;7.05;;
22648;SDS011;11491;41.942;24.220;2022-11-15T03:27:02;10.52;;;7.90;;
22648;SDS011;11491;41.942;24.220;2022-11-15T03:29:32;11.68;;;8.75;;
22648;SDS011;11491;41.942;24.220;2022-11-15T03:32:04;14.25;;;9.68;;
22648;SDS011;11491;41.942;24.220;2022-11-15T03:34:38;15.80;;;9.70;;
22648;SDS011;11491;41.942;24.220;2022-11-15T03:37:08;9.23;;;7.30;;
22648;SDS011;11491;41.942;24.220;2022-11-15T03:39:38;9.90;;;7.20;;
22648;SDS011;11491;41.942;24.220;2022-11-15T03:42:08;15.13;;;10.32;;
22648;SDS011;11491;41.942;24.220;2022-11-15T03:44:46;18.88;;;13.05;;
22648;SDS011;11491;41.942;24.220;2022-11-15T03:47:23;17.92;;;12.35;;
22648;SDS011;11491;41.942;24.220;2022-11-15T03:49:55;16.52;;;11.82;;
22648;SDS011;11491;41.942;24.220;2022-11-15T03:52:26;15.65;;;10.50;;
22648;SDS011;11491;41.942;24.220;2022-11-15T03:54:58;12.93;;;9.02;;
22648;SDS011;11491;41.942;24.220;2022-11-15T03:57:27;12.10;;;8.90;;
22648;SDS011;11491;41.942;24.220;2022-11-15T03:59:54;13.63;;;9.35;;
22648;SDS011;11491;41.942;24.220;2022-11-15T04:02:22;15.48;;;10.55;;
22648;SDS011;11491;41.942;24.220;2022-11-15T04:04:49;11.98;;;7.65;;
22648;SDS011;11491;41.942;24.220;2022-11-15T04:07:15;13.20;;;7.97;;
22648;SDS011;11491;41.942;24.220;2022-11-15T04:09:42;12.23;;;8.30;;
22648;SDS011;11491;41.942;24.220;2022-11-15T04:12:23;14.55;;;9.20;;
22648;SDS011;11491;41.942;24.220;2022-11-15T04:14:56;14.50;;;9.03;;
22648;SDS011;11491;41.942;24.220;2022-11-15T04:17:34;19.73;;;12.85;;
22648;SDS011;11491;41.942;24.220;2022-11-15T04:20:02;16.15;;;12.05;;
22648;SDS011;11491;41.942;24.220;2022-11-15T04:22:47;15.57;;;10.40;;
22648;SDS011;11491;41.942;24.220;2022-11-15T04:27:57;18.98;;;11.82;;
22648;SDS011;11491;41.942;24.220;2022-11-15T04:30:24;16.65;;;11.02;;
22648;SDS011;11491;41.942;24.220;2022-11-15T04:32:51;12.25;;;9.25;;
22648;SDS011;11491;41.942;24.220;2022-11-15T04:35:18;24.60;;;16.48;;
22648;SDS011;11491;41.942;24.220;2022-11-15T04:37:45;20.52;;;14.35;;
22648;SDS011;11491;41.942;24.220;2022-11-15T04:40:12;34.20;;;22.08;;
22648;SDS011;11491;41.942;24.220;2022-11-15T04:42:40;30.50;;;19.33;;
22648;SDS011;11491;41.942;24.220;2022-11-15T04:45:07;29.40;;;19.63;;
22648;SDS011;11491;41.942;24.220;2022-11-15T04:47:35;35.22;;;23.48;;
22648;SDS011;11491;41.942;24.220;2022-11-15T04:50:03;38.10;;;26.23;;
22648;SDS011;11491;41.942;24.220;2022-11-15T04:52:30;30.95;;;22.40;;
22648;SDS011;11491;41.942;24.220;2022-11-15T04:54:57;34.53;;;24.38;;
22648;SDS011;11491;41.942;24.220;2022-11-15T04:57:24;32.63;;;22.90;;
22648;SDS011;11491;41.942;24.220;2022-11-15T04:59:50;22.02;;;16.88;;
22648;SDS011;11491;41.942;24.220;2022-11-15T05:02:17;18.88;;;14.20;;
22648;SDS011;11491;41.942;24.220;2022-11-15T05:04:44;18.45;;;14.23;;
22648;SDS011;11491;41.942;24.220;2022-11-15T05:07:11;18.70;;;13.27;;
22648;SDS011;11491;41.942;24.220;2022-11-15T05:09:38;34.38;;;19.85;;
22648;SDS011;11491;41.942;24.220;2022-11-15T05:12:04;28.35;;;18.70;;
22648;SDS011;11491;41.942;24.220;2022-11-15T05:14:31;33.22;;;22.75;;
22648;SDS011;11491;41.942;24.220;2022-11-15T05:16:58;33.40;;;22.60;;
22648;SDS011;11491;41.942;24.220;2022-11-15T05:19:25;39.08;;;26.92;;
22648;SDS011;11491;41.942;24.220;2022-11-15T05:21:51;36.70;;;23.48;;
22648;SDS011;11491;41.942;24.220;2022-11-15T05:24:19;37.25;;;24.25;;
22648;SDS011;11491;41.942;24.220;2022-11-15T05:26:46;37.95;;;24.40;;
22648;SDS011;11491;41.942;24.220;2022-11-15T05:29:13;23.67;;;16.80;;
22648;SDS011;11491;41.942;24.220;2022-11-15T05:31:40;24.08;;;16.30;;
22648;SDS011;11491;41.942;24.220;2022-11-15T05:34:07;47.45;;;29.30;;
22648;SDS011;11491;41.942;24.220;2022-11-15T05:36:35;25.50;;;18.05;;
22648;SDS011;11491;41.942;24.220;2022-11-15T05:39:04;25.95;;;17.73;;
22648;SDS011;11491;41.942;24.220;2022-11-15T05:41:34;27.95;;;18.95;;
22648;SDS011;11491;41.942;24.220;2022-11-15T05:44:06;21.95;;;16.50;;
22648;SDS011;11491;41.942;24.220;2022-11-15T05:46:35;30.52;;;21.52;;
22648;SDS011;11491;41.942;24.220;2022-11-15T05:49:05;31.10;;;21.98;;
22648;SDS011;11491;41.942;24.220;2022-11-15T05:51:34;23.33;;;15.77;;
22648;SDS011;11491;41.942;24.220;2022-11-15T05:54:01;27.02;;;19.48;;
22648;SDS011;11491;41.942;24.220;2022-11-15T05:56:31;26.05;;;18.00;;
22648;SDS011;11491;41.942;24.220;2022-11-15T05:58:59;27.17;;;19.50;;
22648;SDS011;11491;41.942;24.220;2022-11-15T06:01:26;46.33;;;33.22;;
22648;SDS011;11491;41.942;24.220;2022-11-15T06:03:54;40.92;;;29.60;;
22648;SDS011;11491;41.942;24.220;2022-11-15T06:06:21;66.57;;;45.03;;
22648;SDS011;11491;41.942;24.220;2022-11-15T06:08:47;68.03;;;48.72;;
22648;SDS011;11491;41.942;24.220;2022-11-15T06:11:14;114.78;;;73.18;;
22648;SDS011;11491;41.942;24.220;2022-11-15T06:13:41;109.07;;;70.43;;
22648;SDS011;11491;41.942;24.220;2022-11-15T06:16:09;107.05;;;74.28;;
22648;SDS011;11491;41.942;24.220;2022-11-15T06:18:36;84.50;;;59.95;;
22648;SDS011;11491;41.942;24.220;2022-11-15T06:21:03;68.30;;;47.72;;
22648;SDS011;11491;41.942;24.220;2022-11-15T06:23:31;81.60;;;54.50;;
22648;SDS011;11491;41.942;24.220;2022-11-15T06:25:59;44.83;;;35.95;;
22648;SDS011;11491;41.942;24.220;2022-11-15T06:28:27;28.55;;;21.02;;
22648;SDS011;11491;41.942;24.220;2022-11-15T06:30:54;24.40;;;16.80;;
22648;SDS011;11491;41.942;24.220;2022-11-15T06:33:23;30.02;;;20.02;;
22648;SDS011;11491;41.942;24.220;2022-11-15T06:35:50;39.72;;;27.85;;
22648;SDS011;11491;41.942;24.220;2022-11-15T06:38:16;31.48;;;21.27;;
22648;SDS011;11491;41.942;24.220;2022-11-15T06:40:43;18.20;;;12.98;;
22648;SDS011;11491;41.942;24.220;2022-11-15T06:43:10;22.50;;;16.05;;
22648;SDS011;11491;41.942;24.220;2022-11-15T06:45:36;39.22;;;20.85;;
22648;SDS011;11491;41.942;24.220;2022-11-15T06:48:03;104.57;;;45.15;;
22648;SDS011;11491;41.942;24.220;2022-11-15T06:50:32;132.25;;;54.42;;
22648;SDS011;11491;41.942;24.220;2022-11-15T06:53:02;162.45;;;65.47;;
22648;SDS011;11491;41.942;24.220;2022-11-15T06:55:30;225.15;;;87.03;;
22648;SDS011;11491;41.942;24.220;2022-11-15T06:57:56;375.27;;;167.38;;
22648;SDS011;11491;41.942;24.220;2022-11-15T07:00:23;305.70;;;134.00;;
22648;SDS011;11491;41.942;24.220;2022-11-15T07:02:50;237.77;;;108.00;;
22648;SDS011;11491;41.942;24.220;2022-11-15T07:05:17;204.13;;;92.07;;
22648;SDS011;11491;41.942;24.220;2022-11-15T07:07:45;160.88;;;74.03;;
22648;SDS011;11491;41.942;24.220;2022-11-15T07:12:46;81.18;;;36.35;;
22648;SDS011;11491;41.942;24.220;2022-11-15T07:15:13;64.65;;;30.27;;
22648;SDS011;11491;41.942;24.220;2022-11-15T07:17:40;69.28;;;30.88;;
22648;SDS011;11491;41.942;24.220;2022-11-15T07:20:07;66.65;;;33.33;;
22648;SDS011;11491;41.942;24.220;2022-11-15T07:22:34;74.75;;;39.58;;
22648;SDS011;11491;41.942;24.220;2022-11-15T07:25:03;53.22;;;27.90;;
22648;SDS011;11491;41.942;24.220;2022-11-15T07:27:30;57.38;;;29.88;;
22648;SDS011;11491;41.942;24.220;2022-11-15T07:29:57;49.65;;;29.00;;
22648;SDS011;11491;41.942;24.220;2022-11-15T07:32:23;69.50;;;37.80;;
22648;SDS011;11491;41.942;24.220;2022-11-15T07:34:50;66.82;;;35.65;;
22648;SDS011;11491;41.942;24.220;2022-11-15T07:37:17;84.07;;;44.22;;
22648;SDS011;11491;41.942;24.220;2022-11-15T07:39:44;108.45;;;55.67;;
22648;SDS011;11491;41.942;24.220;2022-11-15T07:42:12;90.18;;;48.78;;
22648;SDS011;11491;41.942;24.220;2022-11-15T07:44:56;54.58;;;30.08;;
22648;SDS011;11491;41.942;24.220;2022-11-15T07:47:23;34.55;;;20.60;;
22648;SDS011;11491;41.942;24.220;2022-11-15T07:49:50;43.03;;;23.58;;
22648;SDS011;11491;41.942;24.220;2022-11-15T07:52:17;53.55;;;28.08;;
22648;SDS011;11491;41.942;24.220;2022-11-15T07:54:43;60.50;;;32.63;;
22648;SDS011;11491;41.942;24.220;2022-11-15T07:57:10;55.58;;;36.50;;
22648;SDS011;11491;41.942;24.220;2022-11-15T07:59:38;17.88;;;10.63;;
22648;SDS011;11491;41.942;24.220;2022-11-15T08:02:05;21.52;;;13.82;;
22648;SDS011;11491;41.942;24.220;2022-11-15T08:04:32;15.63;;;9.50;;
22648;SDS011;11491;41.942;24.220;2022-11-15T08:06:58;12.27;;;7.75;;
22648;SDS011;11491;41.942;24.220;2022-11-15T08:09:25;12.20;;;7.95;;
22648;SDS011;11491;41.942;24.220;2022-11-15T08:11:52;14.80;;;11.80;;
22648;SDS011;11491;41.942;24.220;2022-11-15T08:14:18;20.02;;;14.88;;
22648;SDS011;11491;41.942;24.220;2022-11-15T08:16:48;13.60;;;11.63;;
22648;SDS011;11491;41.942;24.220;2022-11-15T08:19:15;10.77;;;8.88;;
22648;SDS011;11491;41.942;24.220;2022-11-15T08:21:42;8.98;;;7.97;;
22648;SDS011;11491;41.942;24.220;2022-11-15T08:24:09;7.88;;;6.00;;
22648;SDS011;11491;41.942;24.220;2022-11-15T08:26:38;12.30;;;8.93;;
22648;SDS011;11491;41.942;24.220;2022-11-15T08:29:05;26.63;;;19.80;;
22648;SDS011;11491;41.942;24.220;2022-11-15T08:31:33;25.85;;;21.73;;
22648;SDS011;11491;41.942;24.220;2022-11-15T08:34:02;17.67;;;13.52;;
22648;SDS011;11491;41.942;24.220;2022-11-15T08:36:29;24.60;;;14.32;;
22648;SDS011;11491;41.942;24.220;2022-11-15T08:38:56;11.55;;;9.68;;
22648;SDS011;11491;41.942;24.220;2022-11-15T08:41:24;7.47;;;6.68;;
22648;SDS011;11491;41.942;24.220;2022-11-15T08:43:52;12.20;;;7.32;;
22648;SDS011;11491;41.942;24.220;2022-11-15T08:46:19;7.80;;;6.63;;
22648;SDS011;11491;41.942;24.220;2022-11-15T08:48:46;14.65;;;9.80;;
22648;SDS011;11491;41.942;24.220;2022-11-15T08:51:14;19.05;;;11.57;;
22648;SDS011;11491;41.942;24.220;2022-11-15T08:53:41;16.35;;;10.80;;
22648;SDS011;11491;41.942;24.220;2022-11-15T08:56:08;14.60;;;9.60;;
22648;SDS011;11491;41.942;24.220;2022-11-15T08:58:35;9.88;;;8.70;;
22648;SDS011;11491;41.942;24.220;2022-11-15T09:01:02;14.23;;;9.30;;
22648;SDS011;11491;41.942;24.220;2022-11-15T09:03:30;13.80;;;9.70;;
22648;SDS011;11491;41.942;24.220;2022-11-15T09:05:57;12.35;;;9.43;;
22648;SDS011;11491;41.942;24.220;2022-11-15T09:08:29;14.07;;;11.13;;
22648;SDS011;11491;41.942;24.220;2022-11-15T09:10:56;13.00;;;10.30;;
22648;SDS011;11491;41.942;24.220;2022-11-15T09:13:23;15.38;;;13.35;;
22648;SDS011;11491;41.942;24.220;2022-11-15T09:15:50;15.38;;;13.30;;
22648;SDS011;11491;41.942;24.220;2022-11-15T09:18:16;12.30;;;10.95;;
22648;SDS011;11491;41.942;24.220;2022-11-15T09:20:44;16.40;;;11.85;;
22648;SDS011;11491;41.942;24.220;2022-11-15T09:23:11;18.05;;;13.77;;
22648;SDS011;11491;41.942;24.220;2022-11-15T09:25:39;19.42;;;14.15;;
22648;SDS011;11491;41.942;24.220;2022-11-15T09:28:06;15.52;;;11.68;;
22648;SDS011;11491;41.942;24.220;2022-11-15T09:30:33;18.95;;;12.05;;
22648;SDS011;11491;41.942;24.220;2022-11-15T09:33:05;15.48;;;12.90;;
22648;SDS011;11491;41.942;24.220;2022-11-15T09:35:32;17.60;;;12.30;;
22648;SDS011;11491;41.942;24.220;2022-11-15T09:37:59;14.43;;;11.65;;
22648;SDS011;11491;41.942;24.220;2022-11-15T09:40:26;13.68;;;11.98;;
22648;SDS011;11491;41.942;24.220;2022-11-15T09:43:02;24.05;;;14.55;;
22648;SDS011;11491;41.942;24.220;2022-11-15T09:45:47;22.02;;;13.85;;
22648;SDS011;11491;41.942;24.220;2022-11-15T09:48:26;24.60;;;16.35;;
22648;SDS011;11491;41.942;24.220;2022-11-15T09:51:12;32.25;;;18.45;;
22648;SDS011;11491;41.942;24.220;2022-11-15T09:53:48;23.17;;;16.45;;
22648;SDS011;11491;41.942;24.220;2022-11-15T09:56:22;32.25;;;19.92;;
22648;SDS011;11491;41.942;24.220;2022-11-15T09:58:56;19.92;;;14.40;;
22648;SDS011;11491;41.942;24.220;2022-11-15T10:01:35;22.77;;;14.90;;
22648;SDS011;11491;41.942;24.220;2022-11-15T10:04:06;22.63;;;16.15;;
22648;SDS011;11491;41.942;24.220;2022-11-15T10:06:33;23.00;;;16.58;;
22648;SDS011;11491;41.942;24.220;2022-11-15T10:09:06;28.00;;;21.25;;
22648;SDS011;11491;41.942;24.220;2022-11-15T10:11:39;17.25;;;12.98;;
22648;SDS011;11491;41.942;24.220;2022-11-15T10:14:10;20.17;;;15.48;;
22648;SDS011;11491;41.942;24.220;2022-11-15T10:19:50;17.23;;;14.77;;
22648;SDS011;11491;41.942;24.220;2022-11-15T10:22:26;20.60;;;14.13;;
22648;SDS011;11491;41.942;24.220;2022-11-15T10:25:09;17.80;;;15.05;;
22648;SDS011;11491;41.942;24.220;2022-11-15T10:27:42;16.77;;;14.23;;
22648;SDS011;11491;41.942;24.220;2022-11-15T10:30:13;16.73;;;14.70;;
22648;SDS011;11491;41.942;24.220;2022-11-15T10:32:42;16.83;;;14.93;;
22648;SDS011;11491;41.942;24.220;2022-11-15T10:35:20;17.55;;;14.02;;
22648;SDS011;11491;41.942;24.220;2022-11-15T10:37:49;20.38;;;16.80;;
22648;SDS011;11491;41.942;24.220;2022-11-15T10:40:17;17.35;;;14.88;;
22648;SDS011;11491;41.942;24.220;2022-11-15T10:42:46;18.48;;;15.70;;
22648;SDS011;11491;41.942;24.220;2022-11-15T10:45:25;17.55;;;14.52;;
22648;SDS011;11491;41.942;24.220;2022-11-15T10:47:54;17.67;;;14.50;;
22648;SDS011;11491;41.942;24.220;2022-11-15T10:50:48;19.27;;;15.80;;
22648;SDS011;11491;41.942;24.220;2022-11-15T10:53:18;20.08;;;16.13;;
22648;SDS011;11491;41.942;24.220;2022-11-15T10:55:50;16.90;;;13.55;;
22648;SDS011;11491;41.942;24.220;2022-11-15T10:58:20;18.48;;;13.60;;
22648;SDS011;11491;41.942;24.220;2022-11-15T11:01:09;25.25;;;19.10;;
22648;SDS011;11491;41.942;24.220;2022-11-15T11:03:42;20.75;;;15.48;;
22648;SDS011;11491;41.942;24.220;2022-11-15T11:06:11;16.33;;;14.30;;
22648;SDS011;11491;41.942;24.220;2022-11-15T11:08:39;17.08;;;13.43;;
22648;SDS011;11491;41.942;24.220;2022-11-15T11:11:06;20.17;;;14.82;;
22648;SDS011;11491;41.942;24.220;2022-11-15T11:13:34;19.67;;;14.85;;
22648;SDS011;11491;41.942;24.220;2022-11-15T11:16:17;21.42;;;16.77;;
22648;SDS011;11491;41.942;24.220;2022-11-15T11:18:51;22.65;;;16.83;;
22648;SDS011;11491;41.942;24.220;2022-11-15T11:21:30;21.88;;;16.92;;
22648;SDS011;11491;41.942;24.220;2022-11-15T11:24:09;30.33;;;22.98;;
22648;SDS011;11491;41.942;24.220;2022-11-15T11:26:44;22.33;;;18.27;;
22648;SDS011;11491;41.942;24.220;2022-11-15T11:29:24;23.98;;;18.25;;
22648;SDS011;11491;41.942;24.220;2022-11-15T11:32:02;24.90;;;16.83;;
22648;SDS011;11491;41.942;24.220;2022-11-15T11:34:41;20.10;;;15.75;;
22648;SDS011;11491;41.942;24.220;2022-11-15T11:37:17;20.92;;;16.27;;
22648;SDS011;11491;41.942;24.220;2022-11-15T11:39:54;20.58;;;16.90;;
22648;SDS011;11491;41.942;24.220;2022-11-15T11:42:35;19.23;;;15.80;;
22648;SDS011;11491;41.942;24.220;2022-11-15T11:45:11;20.73;;;15.95;;
22648;SDS011;11491;41.942;24.220;2022-11-15T11:47:48;23.88;;;19.90;;
22648;SDS011;11491;41.942;24.220;2022-11-15T11:50:25;23.42;;;17.42;;
22648;SDS011;11491;41.942;24.220;2022-11-15T11:52:56;22.90;;;17.13;;
22648;SDS011;11491;41.942;24.220;2022-11-15T11:55:25;22.25;;;16.20;;
22648;SDS011;11491;41.942;24.220;2022-11-15T11:58:03;24.27;;;15.55;;
22648;SDS011;11491;41.942;24.220;2022-11-15T12:00:38;19.80;;;15.77;;
22648;SDS011;11491;41.942;24.220;2022-11-15T12:03:13;20.00;;;16.55;;
22648;SDS011;11491;41.942;24.220;2022-11-15T12:05:46;23.70;;;18.25;;
22648;SDS011;11491;41.942;24.220;2022-11-15T12:08:31;33.15;;;24.83;;
22648;SDS011;11491;41.942;24.220;2022-11-15T12:11:07;20.88;;;16.08;;
22648;SDS011;11491;41.942;24.220;2022-11-15T12:13:36;22.33;;;18.52;;
22648;SDS011;11491;41.942;24.220;2022-11-15T12:16:06;26.75;;;21.05;;
22648;SDS011;11491;41.942;24.220;2022-11-15T12:18:40;41.78;;;29.20;;
22648;SDS011;11491;41.942;24.220;2022-11-15T12:21:13;45.53;;;33.42;;
22648;SDS011;11491;41.942;24.220;2022-11-15T12:23:46;41.20;;;30.70;;
22648;SDS011;11491;41.942;24.220;2022-11-15T12:26:19;47.93;;;35.50;;
22648;SDS011;11491;41.942;24.220;2022-11-15T12:28:50;39.33;;;31.13;;
22648;SDS011;11491;41.942;24.220;2022-11-15T12:31:23;34.42;;;26.00;;
22648;SDS011;11491;41.942;24.220;2022-11-15T12:34:05;29.15;;;23.85;;
22648;SDS011;11491;41.942;24.220;2022-11-15T12:36:42;38.92;;;30.10;;
22648;SDS011;11491;41.942;24.220;2022-11-15T12:39:10;46.40;;;37.08;;
22648;SDS011;11491;41.942;24.220;2022-11-15T12:41:38;36.78;;;30.30;;
22648;SDS011;11491;41.942;24.220;2022-11-15T12:44:10;32.38;;;25.65;;
22648;SDS011;11491;41.942;24.220;2022-11-15T12:49:48;31.42;;;22.25;;
22648;SDS011;11491;41.942;24.220;2022-11-15T12:52:15;32.75;;;25.08;;
22648;SDS011;11491;41.942;24.220;2022-11-15T12:55:08;28.02;;;23.35;;
22648;SDS011;11491;41.942;24.220;2022-11-15T13:00:53;33.75;;;27.20;;
22648;SDS011;11491;41.942;24.220;2022-11-15T13:06:09;36.13;;;26.65;;
22648;SDS011;11491;41.942;24.220;2022-11-15T13:12:07;35.05;;;26.20;;
22648;SDS011;11491;41.942;24.220;2022-11-15T13:14:46;39.30;;;28.80;;
22648;SDS011;11491;41.942;24.220;2022-11-15T13:17:25;37.70;;;27.98;;
22648;SDS011;11491;41.942;24.220;2022-11-15T13:19:57;40.05;;;30.17;;
22648;SDS011;11491;41.942;24.220;2022-11-15T13:22:27;37.03;;;27.52;;
22648;SDS011;11491;41.942;24.220;2022-11-15T13:25:18;29.23;;;24.45;;
22648;SDS011;11491;41.942;24.220;2022-11-15T13:27:51;36.25;;;24.63;;
22648;SDS011;11491;41.942;24.220;2022-11-15T13:30:23;48.92;;;32.63;;
22648;SDS011;11491;41.942;24.220;2022-11-15T13:32:51;34.08;;;25.33;;
22648;SDS011;11491;41.942;24.220;2022-11-15T13:35:23;37.78;;;25.45;;
22648;SDS011;11491;41.942;24.220;2022-11-15T13:37:53;35.65;;;24.67;;
22648;SDS011;11491;41.942;24.220;2022-11-15T13:40:24;33.75;;;24.75;;
22648;SDS011;11491;41.942;24.220;2022-11-15T13:42:55;40.33;;;28.73;;
22648;SDS011;11491;41.942;24.220;2022-11-15T13:45:22;39.28;;;27.42;;
22648;SDS011;11491;41.942;24.220;2022-11-15T13:47:56;42.22;;;29.88;;
22648;SDS011;11491;41.942;24.220;2022-11-15T13:50:25;48.13;;;35.90;;
22648;SDS011;11491;41.942;24.220;2022-11-15T13:52:58;35.88;;;26.30;;
22648;SDS011;11491;41.942;24.220;2022-11-15T13:55:28;43.30;;;30.80;;
22648;SDS011;11491;41.942;24.220;2022-11-15T13:57:58;37.42;;;28.67;;
22648;SDS011;11491;41.942;24.220;2022-11-15T14:00:33;35.08;;;25.45;;
22648;SDS011;11491;41.942;24.220;2022-11-15T14:03:06;36.47;;;28.33;;
22648;SDS011;11491;41.942;24.220;2022-11-15T14:05:39;44.00;;;31.98;;
22648;SDS011;11491;41.942;24.220;2022-11-15T14:08:21;40.05;;;29.90;;
22648;SDS011;11491;41.942;24.220;2022-11-15T14:10:50;47.85;;;34.95;;
22648;SDS011;11491;41.942;24.220;2022-11-15T14:13:32;41.70;;;29.88;;
22648;SDS011;11491;41.942;24.220;2022-11-15T14:16:12;41.28;;;29.38;;
22648;SDS011;11491;41.942;24.220;2022-11-15T14:18:41;40.80;;;29.77;;
22648;SDS011;11491;41.942;24.220;2022-11-15T14:21:10;44.40;;;30.38;;
22648;SDS011;11491;41.942;24.220;2022-11-15T14:23:38;40.80;;;28.17;;
22648;SDS011;11491;41.942;24.220;2022-11-15T14:26:05;42.40;;;28.33;;
22648;SDS011;11491;41.942;24.220;2022-11-15T14:28:32;37.67;;;27.52;;
22648;SDS011;11491;41.942;24.220;2022-11-15T14:31:06;48.88;;;28.42;;
22648;SDS011;11491;41.942;24.220;2022-11-15T14:36:05;49.17;;;32.65;;
22648;SDS011;11491;41.942;24.220;2022-11-15T14:38:38;44.45;;;30.85;;
22648;SDS011;11491;41.942;24.220;2022-11-15T14:41:05;66.18;;;40.33;;
22648;SDS011;11491;41.942;24.220;2022-11-15T14:43:43;54.78;;;35.40;;
22648;SDS011;11491;41.942;24.220;2022-11-15T14:46:09;51.15;;;34.17;;
22648;SDS011;11491;41.942;24.220;2022-11-15T14:48:36;53.60;;;32.53;;
22648;SDS011;11491;41.942;24.220;2022-11-15T14:51:03;49.05;;;31.33;;
22648;SDS011;11491;41.942;24.220;2022-11-15T14:53:35;46.83;;;29.70;;
22648;SDS011;11491;41.942;24.220;2022-11-15T14:56:03;53.03;;;29.23;;
22648;SDS011;11491;41.942;24.220;2022-11-15T14:58:30;52.25;;;31.77;;